カラカス の空港の天気 - METARとTAF

シモン・ボリバー空港(バルガス) ( SVMI / CCS ) - ベネズエラ バルガス州、Maiquetia (カラカス近郊)
飛行場実況気象(Metar)
観測時間12/09 12:00 VET (12/09 16:00 UTC)
風向・風速東 2m/s
視程10km以上
天気現象
少しの雲 雲底高度 490m
気温32℃
湿度59%
気圧1015hPa
METARSVMI 091600Z 09003KT 9999 FEW016 32/23 Q1015
過去の天気等 Google飛行場航空写真 Wunderground天気予報

過去48時間のMETAR

飛行場予報(TAF)
発表時間: 12/09 06:00 VET (12/09 10:00 UTC)
予報対象時間: 9日8時 VET ~ 10日8時 VET
風向・風速静穏
視程10km以上
全天の4割程度の雲 雲底高度 400m
少しの雲 雲底高度 490m
9日12時 VET ~ 9日18時 VET に一時的に
風向・風速東北東 3m/s
視程9000m
天気現象霧雨
全天の4割程度の雲 雲底高度 2740m
全天の8割程度の雲 雲底高度 490m
TAF SVMI 091000Z 0912/1012 00000KT 9999 SCT013 FEW016 TX31/0918Z TN21/1007Z
TEMPO 0916/0922 07006KT 9000 DZ SCT090 BKN016